createdAt,value
2023-07-18T00:01:04.679Z,14.20
2023-07-18T00:03:31.176Z,14.37
2023-07-18T00:05:57.589Z,14.07
2023-07-18T00:08:23.987Z,13.89
2023-07-18T00:10:50.399Z,13.88
2023-07-18T00:13:16.794Z,13.92
2023-07-18T00:15:43.240Z,13.79
2023-07-18T00:18:09.690Z,13.78
2023-07-18T00:20:36.100Z,13.51
2023-07-18T00:23:02.596Z,13.60
2023-07-18T00:25:29.201Z,13.45
2023-07-18T00:27:55.739Z,13.30
2023-07-18T00:30:22.867Z,13.25
2023-07-18T00:32:49.338Z,13.29
2023-07-18T00:35:16.168Z,13.22
2023-07-18T00:37:43.624Z,13.31
2023-07-18T00:40:11.748Z,13.23
2023-07-18T00:42:38.947Z,13.15
2023-07-18T00:45:06.787Z,13.13
2023-07-18T00:47:34.053Z,13.28
2023-07-18T00:50:00.474Z,13.36
2023-07-18T00:52:26.883Z,12.92
2023-07-18T00:54:53.318Z,13.09
2023-07-18T00:57:19.728Z,12.77
2023-07-18T00:59:46.129Z,12.55
2023-07-18T01:02:12.554Z,12.59
2023-07-18T01:04:38.943Z,12.67
2023-07-18T01:07:05.714Z,12.78
2023-07-18T01:09:32.177Z,12.85
2023-07-18T01:11:58.595Z,12.87
2023-07-18T01:14:24.969Z,12.84
2023-07-18T01:16:52.820Z,12.87
2023-07-18T01:19:19.272Z,12.69
2023-07-18T01:21:45.764Z,12.80
2023-07-18T01:24:12.138Z,12.78
2023-07-18T01:26:38.525Z,12.76
2023-07-18T01:29:05.005Z,12.81
2023-07-18T01:31:31.461Z,12.81
2023-07-18T01:33:57.851Z,12.70
2023-07-18T01:36:24.281Z,12.57
2023-07-18T01:38:50.659Z,12.75
2023-07-18T01:41:17.175Z,12.77
2023-07-18T01:43:43.638Z,12.73
2023-07-18T01:46:10.024Z,12.71
2023-07-18T01:48:36.418Z,12.75
2023-07-18T01:51:02.795Z,12.82
2023-07-18T01:53:29.231Z,12.87
2023-07-18T01:55:58.662Z,12.82
2023-07-18T01:58:25.045Z,12.80
2023-07-18T02:00:51.531Z,12.79
2023-07-18T02:03:18.044Z,12.78
2023-07-18T02:05:44.430Z,12.87
2023-07-18T02:08:10.810Z,12.84
2023-07-18T02:10:37.200Z,12.91
2023-07-18T02:13:03.591Z,12.73
2023-07-18T02:15:30.460Z,12.75
2023-07-18T02:17:57.212Z,12.89
2023-07-18T02:20:23.652Z,12.91
2023-07-18T02:22:50.167Z,12.90
2023-07-18T02:25:16.828Z,12.96
2023-07-18T02:27:43.285Z,12.94
2023-07-18T02:30:11.347Z,13.02
2023-07-18T02:32:39.049Z,12.75
2023-07-18T02:35:06.881Z,12.87
2023-07-18T02:37:33.336Z,12.86
2023-07-18T02:39:59.739Z,12.82
2023-07-18T02:42:26.121Z,12.81
2023-07-18T02:44:52.506Z,12.74
2023-07-18T02:47:18.983Z,12.54
2023-07-18T02:49:45.386Z,12.38
2023-07-18T02:52:11.766Z,12.61
2023-07-18T02:54:38.149Z,12.64
2023-07-18T02:57:04.805Z,12.64
2023-07-18T02:59:31.201Z,12.62
2023-07-18T03:01:57.630Z,12.65
2023-07-18T03:04:25.176Z,12.61
2023-07-18T03:06:51.619Z,12.57
2023-07-18T03:09:18.501Z,12.65
2023-07-18T03:11:45.209Z,12.46
2023-07-18T03:14:11.819Z,12.24
2023-07-18T03:16:41.638Z,12.50
2023-07-18T03:19:09.556Z,12.55
2023-07-18T03:21:35.940Z,12.55
2023-07-18T03:24:02.361Z,12.28
2023-07-18T03:26:28.771Z,12.41
2023-07-18T03:28:55.555Z,12.27
2023-07-18T03:31:22.398Z,12.35
2023-07-18T03:33:48.899Z,12.23
2023-07-18T03:36:15.329Z,12.24
2023-07-18T03:38:41.779Z,12.21
2023-07-18T03:41:08.188Z,12.32
2023-07-18T03:43:34.661Z,12.36
2023-07-18T03:46:01.120Z,12.35
2023-07-18T03:48:27.760Z,12.37
2023-07-18T03:50:54.215Z,12.30
2023-07-18T03:53:21.056Z,12.30
2023-07-18T03:55:47.450Z,12.47
2023-07-18T03:58:13.848Z,12.62
2023-07-18T04:00:40.275Z,12.59
2023-07-18T04:03:06.685Z,12.73
2023-07-18T04:05:33.225Z,12.60
2023-07-18T04:07:59.625Z,12.61
2023-07-18T04:10:25.991Z,12.66
2023-07-18T04:12:52.483Z,12.64
2023-07-18T04:15:18.880Z,12.73
2023-07-18T04:17:45.445Z,12.80
2023-07-18T04:20:12.101Z,12.92
2023-07-18T04:22:38.654Z,13.03
2023-07-18T04:25:05.497Z,13.13
2023-07-18T04:27:31.874Z,13.19
2023-07-18T04:29:58.225Z,13.27
2023-07-18T04:32:25.317Z,13.27
2023-07-18T04:34:51.713Z,13.31
2023-07-18T04:37:18.094Z,13.43
2023-07-18T04:39:44.483Z,13.51
2023-07-18T04:42:11.506Z,13.61
2023-07-18T04:44:37.899Z,13.70
2023-07-18T04:47:04.623Z,13.66
2023-07-18T04:49:31.048Z,13.71
2023-07-18T04:51:57.407Z,13.94
2023-07-18T04:54:24.072Z,14.05
2023-07-18T04:56:50.438Z,14.03
2023-07-18T04:59:16.849Z,14.13
2023-07-18T05:01:43.288Z,14.19
2023-07-18T05:04:09.817Z,14.26
2023-07-18T05:06:36.218Z,14.32
2023-07-18T05:09:02.596Z,14.43
2023-07-18T05:11:28.967Z,14.54
2023-07-18T05:13:55.368Z,14.59
2023-07-18T05:16:21.842Z,14.60
2023-07-18T05:18:48.274Z,14.67
2023-07-18T05:21:14.636Z,14.79
2023-07-18T05:23:41.058Z,14.76
2023-07-18T05:26:07.439Z,14.81
2023-07-18T05:28:33.850Z,14.87
2023-07-18T05:31:07.352Z,15.01
2023-07-18T05:33:33.759Z,14.97
2023-07-18T05:36:00.147Z,15.02
2023-07-18T05:38:26.523Z,15.09
2023-07-18T05:40:52.945Z,15.25
2023-07-18T05:43:19.359Z,15.41
2023-07-18T05:45:45.876Z,15.38
2023-07-18T05:48:12.354Z,15.34
2023-07-18T05:50:38.779Z,15.31
2023-07-18T05:53:05.153Z,15.50
2023-07-18T05:55:31.564Z,15.71
2023-07-18T05:57:58.010Z,15.62
2023-07-18T06:00:24.481Z,15.76
2023-07-18T06:02:50.884Z,15.84
2023-07-18T06:05:17.314Z,15.76
2023-07-18T06:07:43.695Z,15.87
2023-07-18T06:10:10.436Z,15.88
2023-07-18T06:12:36.823Z,15.99
2023-07-18T06:15:03.280Z,16.13
2023-07-18T06:17:29.742Z,16.03
2023-07-18T06:19:56.325Z,16.26
2023-07-18T06:22:22.788Z,16.30
2023-07-18T06:24:49.157Z,16.46
2023-07-18T06:27:15.550Z,16.57
2023-07-18T06:29:41.941Z,16.49
2023-07-18T06:32:08.720Z,16.50
2023-07-18T06:34:35.097Z,16.53
2023-07-18T06:37:01.504Z,16.58
2023-07-18T06:39:27.920Z,16.77
2023-07-18T06:41:54.285Z,16.88
2023-07-18T06:44:20.656Z,16.85
2023-07-18T06:46:47.080Z,16.70
2023-07-18T06:49:13.501Z,16.94
2023-07-18T06:51:39.938Z,16.88
2023-07-18T06:54:06.318Z,17.51
2023-07-18T06:56:32.701Z,17.12
2023-07-18T06:58:59.092Z,17.22
2023-07-18T07:01:25.543Z,17.37
2023-07-18T07:03:52.015Z,17.26
2023-07-18T07:06:18.445Z,17.26
2023-07-18T07:08:44.851Z,17.77
2023-07-18T07:11:11.269Z,17.39
2023-07-18T07:13:38.235Z,17.97
2023-07-18T07:16:05.298Z,17.76
2023-07-18T07:18:31.898Z,18.04
2023-07-18T07:20:58.524Z,18.08
2023-07-18T07:23:25.021Z,18.09
2023-07-18T07:25:51.538Z,18.26
2023-07-18T07:28:18.034Z,18.17
2023-07-18T07:30:44.471Z,18.61
2023-07-18T07:33:10.859Z,18.96
2023-07-18T07:35:37.247Z,18.55
2023-07-18T07:38:03.682Z,18.25
2023-07-18T07:40:30.060Z,18.58
2023-07-18T07:42:56.434Z,18.64
2023-07-18T07:45:22.857Z,18.46
2023-07-18T07:47:49.395Z,18.49
2023-07-18T07:50:16.326Z,18.52
2023-07-18T07:52:42.847Z,18.58
2023-07-18T07:55:11.295Z,19.08
2023-07-18T07:57:37.815Z,19.28
2023-07-18T08:00:05.028Z,18.98
2023-07-18T08:02:31.466Z,18.91
2023-07-18T08:04:57.925Z,19.45
2023-07-18T08:07:24.386Z,19.69
2023-07-18T08:09:50.775Z,19.93
2023-07-18T08:12:17.150Z,19.11
2023-07-18T08:14:43.539Z,19.71
2023-07-18T08:17:09.921Z,19.79
2023-07-18T08:19:36.294Z,19.79
2023-07-18T08:22:04.542Z,19.98
2023-07-18T08:24:31.337Z,20.08
2023-07-18T08:26:58.701Z,19.78
2023-07-18T08:29:27.201Z,19.55
2023-07-18T08:31:54.127Z,20.12
2023-07-18T08:34:21.664Z,19.89
2023-07-18T08:36:48.250Z,19.76
2023-07-18T08:39:15.653Z,20.07
2023-07-18T08:41:47.734Z,19.96
2023-07-18T08:44:15.100Z,20.09
2023-07-18T08:46:42.226Z,20.52
2023-07-18T08:49:08.718Z,20.72
2023-07-18T08:51:35.132Z,20.27
2023-07-18T08:54:01.609Z,20.46
2023-07-18T08:56:28.031Z,20.67
2023-07-18T08:58:55.586Z,20.77
2023-07-18T09:01:22.286Z,21.33
2023-07-18T09:03:48.977Z,21.03
2023-07-18T09:06:19.782Z,20.92
2023-07-18T09:08:46.749Z,21.15
2023-07-18T09:11:13.270Z,21.05
2023-07-18T09:13:40.932Z,20.90
2023-07-18T09:16:18.261Z,21.45
2023-07-18T09:18:50.259Z,21.63
2023-07-18T09:21:17.832Z,21.58
2023-07-18T09:23:45.152Z,22.03
2023-07-18T09:26:13.738Z,21.62
2023-07-18T09:28:40.242Z,21.58
2023-07-18T09:31:36.118Z,21.42
2023-07-18T09:34:11.779Z,21.65
2023-07-18T09:36:38.247Z,22.18
2023-07-18T09:39:05.023Z,21.78
2023-07-18T09:41:32.569Z,22.29
2023-07-18T09:44:22.287Z,22.18
2023-07-18T09:46:46.564Z,22.16
2023-07-18T09:49:14.905Z,22.22
2023-07-18T09:51:47.649Z,22.45
2023-07-18T09:54:14.921Z,21.89
2023-07-18T09:56:41.668Z,22.06
2023-07-18T09:59:09.577Z,22.66
2023-07-18T10:01:36.615Z,22.58
2023-07-18T10:04:03.899Z,22.49
2023-07-18T10:06:32.960Z,22.73
2023-07-18T10:08:59.993Z,22.75
2023-07-18T10:11:26.381Z,22.72
2023-07-18T10:13:55.509Z,22.39
2023-07-18T10:16:22.975Z,22.54
2023-07-18T10:18:50.734Z,22.40
2023-07-18T10:21:34.323Z,22.51
2023-07-18T10:24:19.427Z,22.97
2023-07-18T10:26:48.013Z,23.22
2023-07-18T10:29:14.411Z,23.34
2023-07-18T10:31:41.125Z,22.62
2023-07-18T10:34:08.407Z,23.48
2023-07-18T10:36:34.876Z,23.51
2023-07-18T10:39:06.744Z,23.15
2023-07-18T10:41:33.161Z,22.89
2023-07-18T10:43:59.556Z,22.60
2023-07-18T10:46:36.021Z,22.36
2023-07-18T10:49:03.164Z,22.99
2023-07-18T10:51:33.311Z,22.93
2023-07-18T10:53:59.720Z,23.71
2023-07-18T10:56:26.668Z,23.24
2023-07-18T10:58:53.455Z,23.31
2023-07-18T11:01:21.025Z,23.63
2023-07-18T11:03:47.737Z,23.38
2023-07-18T11:06:14.337Z,23.40
2023-07-18T11:08:40.716Z,23.30
2023-07-18T11:11:07.106Z,23.64
2023-07-18T11:13:35.246Z,23.59
2023-07-18T11:16:03.805Z,23.63
2023-07-18T11:18:35.684Z,23.96
2023-07-18T11:21:06.180Z,22.92
2023-07-18T11:23:33.491Z,23.70
2023-07-18T11:25:59.903Z,23.13
2023-07-18T11:28:33.433Z,23.84
2023-07-18T11:30:59.926Z,23.64
2023-07-18T11:33:33.273Z,23.91
2023-07-18T11:35:59.735Z,24.77
2023-07-18T11:38:30.270Z,24.24
2023-07-18T11:40:56.739Z,24.27
2023-07-18T11:43:23.145Z,24.18
2023-07-18T11:45:55.756Z,24.47
2023-07-18T11:48:22.394Z,24.01
2023-07-18T11:50:49.333Z,23.96
2023-07-18T11:53:24.816Z,24.08
2023-07-18T11:55:53.833Z,24.54
2023-07-18T11:58:20.214Z,24.52
2023-07-18T12:00:46.672Z,24.43
2023-07-18T12:03:13.306Z,24.97
2023-07-18T12:05:39.778Z,24.36
2023-07-18T12:08:06.185Z,23.93
2023-07-18T12:10:32.585Z,24.10
2023-07-18T12:12:59.022Z,23.97
2023-07-18T12:15:25.489Z,24.22
2023-07-18T12:17:51.875Z,24.38
2023-07-18T12:20:18.336Z,24.57
2023-07-18T12:22:44.753Z,24.41
2023-07-18T12:25:11.140Z,24.10
2023-07-18T12:27:37.518Z,24.06
2023-07-18T12:30:04.703Z,24.24
2023-07-18T12:32:32.358Z,24.28
2023-07-18T12:34:59.185Z,24.05
2023-07-18T12:37:25.648Z,24.14
2023-07-18T12:39:52.244Z,24.43
2023-07-18T12:42:18.888Z,24.35
2023-07-18T12:44:45.482Z,24.22
2023-07-18T12:47:11.905Z,24.12
2023-07-18T12:52:07.876Z,24.10
2023-07-18T12:54:34.714Z,24.35
2023-07-18T12:57:01.171Z,24.21
2023-07-18T12:59:28.028Z,24.11
2023-07-18T13:01:55.350Z,24.06
2023-07-18T13:04:21.811Z,23.83
2023-07-18T13:06:48.232Z,24.14
2023-07-18T13:09:14.621Z,24.18
2023-07-18T13:11:41.050Z,24.08
2023-07-18T13:14:07.750Z,24.32
2023-07-18T13:16:35.236Z,24.23
2023-07-18T13:19:01.934Z,24.59
2023-07-18T13:21:28.340Z,24.86
2023-07-18T13:23:54.729Z,24.68
2023-07-18T13:26:22.537Z,24.90
2023-07-18T13:28:49.254Z,25.04
2023-07-18T13:31:15.834Z,24.86
2023-07-18T13:33:42.290Z,24.58
2023-07-18T13:36:08.717Z,25.16
2023-07-18T13:38:35.647Z,25.20
2023-07-18T13:41:03.094Z,25.11
2023-07-18T13:43:29.533Z,24.99
2023-07-18T13:45:56.013Z,24.96
2023-07-18T13:48:22.473Z,24.94
2023-07-18T13:50:48.958Z,25.20
2023-07-18T13:53:15.357Z,25.59
2023-07-18T13:55:41.744Z,25.48
2023-07-18T13:58:08.140Z,25.58
2023-07-18T14:00:34.528Z,25.51
2023-07-18T14:03:01.038Z,25.21
2023-07-18T14:05:29.631Z,25.27
2023-07-18T14:07:56.268Z,24.63
2023-07-18T14:10:22.685Z,24.94
2023-07-18T14:12:49.056Z,24.91
2023-07-18T14:15:15.436Z,24.67
2023-07-18T14:17:41.834Z,24.98
2023-07-18T14:20:08.884Z,24.94
2023-07-18T14:22:35.301Z,25.19
2023-07-18T14:25:05.553Z,25.14
2023-07-18T14:27:31.974Z,24.93
2023-07-18T14:29:58.414Z,25.38
2023-07-18T14:32:24.849Z,25.03
2023-07-18T14:34:51.302Z,25.27
2023-07-18T14:37:17.710Z,25.13
2023-07-18T14:39:44.172Z,25.47
2023-07-18T14:42:10.591Z,25.41
2023-07-18T14:44:37.248Z,25.47
2023-07-18T14:47:04.109Z,25.42
2023-07-18T14:49:30.573Z,25.45
2023-07-18T14:51:57.032Z,25.28
2023-07-18T14:54:23.535Z,25.20
2023-07-18T14:56:49.954Z,25.45
2023-07-18T14:59:16.336Z,25.36
2023-07-18T15:01:42.770Z,25.40
2023-07-18T15:04:09.192Z,25.25
2023-07-18T15:06:35.629Z,25.52
2023-07-18T15:09:02.016Z,25.36
2023-07-18T15:11:28.397Z,25.43
2023-07-18T15:13:54.971Z,25.44
2023-07-18T15:16:21.673Z,25.71
2023-07-18T15:18:50.481Z,24.96
2023-07-18T15:21:16.878Z,24.88
2023-07-18T15:23:43.278Z,25.07
2023-07-18T15:26:09.737Z,25.09
2023-07-18T15:28:36.144Z,25.33
2023-07-18T15:31:02.595Z,25.25
2023-07-18T15:33:29.077Z,25.32
2023-07-18T15:35:55.688Z,25.06
2023-07-18T15:38:22.151Z,25.10
2023-07-18T15:40:48.562Z,25.37
2023-07-18T15:43:15.018Z,25.23
2023-07-18T15:45:41.522Z,25.46
2023-07-18T15:48:08.014Z,25.71
2023-07-18T15:50:34.895Z,25.60
2023-07-18T15:53:01.390Z,25.61
2023-07-18T15:55:27.766Z,25.37
2023-07-18T15:57:54.185Z,25.27
2023-07-18T16:00:20.616Z,25.55
2023-07-18T16:02:47.046Z,25.18
2023-07-18T16:05:13.605Z,25.26
2023-07-18T16:07:40.019Z,25.36
2023-07-18T16:10:06.844Z,25.24
2023-07-18T16:12:33.253Z,25.25
2023-07-18T16:14:59.642Z,25.20
2023-07-18T16:17:26.156Z,25.33
2023-07-18T16:19:52.594Z,25.38
2023-07-18T16:22:19.368Z,25.41
2023-07-18T16:24:45.767Z,25.33
2023-07-18T16:27:12.287Z,25.40
2023-07-18T16:29:38.674Z,25.18
2023-07-18T16:32:05.700Z,25.31
2023-07-18T16:34:32.112Z,25.38
2023-07-18T16:36:58.521Z,25.35
2023-07-18T16:39:24.931Z,25.26
2023-07-18T16:41:51.317Z,25.28
2023-07-18T16:44:19.966Z,25.22
2023-07-18T16:46:47.364Z,25.02
2023-07-18T16:49:13.948Z,25.15
2023-07-18T16:51:40.413Z,25.14
2023-07-18T16:54:07.138Z,25.17
2023-07-18T16:56:35.020Z,25.04
2023-07-18T16:59:03.011Z,24.79
2023-07-18T17:01:29.435Z,24.87
2023-07-18T17:03:55.866Z,24.80
2023-07-18T17:06:22.657Z,24.78
2023-07-18T17:08:49.288Z,24.67
2023-07-18T17:11:15.759Z,24.69
2023-07-18T17:13:42.210Z,24.61
2023-07-18T17:16:08.782Z,24.41
2023-07-18T17:18:35.243Z,24.36
2023-07-18T17:21:03.538Z,24.47
2023-07-18T17:23:29.939Z,24.27
2023-07-18T17:25:57.397Z,24.25
2023-07-18T17:28:25.522Z,24.27
2023-07-18T17:30:51.932Z,24.10
2023-07-18T17:33:18.350Z,24.03
2023-07-18T17:35:45.173Z,24.19
2023-07-18T17:38:11.577Z,24.10
2023-07-18T17:40:37.968Z,23.97
2023-07-18T17:43:04.553Z,23.88
2023-07-18T17:45:31.165Z,23.84
2023-07-18T17:47:59.080Z,23.86
2023-07-18T17:50:25.770Z,23.79
2023-07-18T17:52:52.195Z,23.72
2023-07-18T17:55:18.631Z,23.52
2023-07-18T17:57:45.023Z,23.55
2023-07-18T18:00:11.818Z,23.47
2023-07-18T18:02:38.356Z,23.32
2023-07-18T18:05:37.329Z,23.32
2023-07-18T18:08:04.676Z,23.25
2023-07-18T18:10:31.141Z,22.95
2023-07-18T18:12:57.944Z,22.94
2023-07-18T18:15:24.389Z,22.87
2023-07-18T18:17:50.835Z,22.86
2023-07-18T18:20:17.277Z,22.55
2023-07-18T18:22:43.713Z,22.41
2023-07-18T18:25:10.150Z,22.34
2023-07-18T18:27:36.565Z,22.30
2023-07-18T18:30:02.986Z,22.11
2023-07-18T18:32:29.420Z,21.93
2023-07-18T18:35:05.571Z,21.91
2023-07-18T18:37:33.705Z,21.82
2023-07-18T18:40:00.158Z,21.76
2023-07-18T18:42:26.877Z,21.65
2023-07-18T18:44:53.291Z,21.61
2023-07-18T18:47:19.699Z,21.65
2023-07-18T18:49:46.111Z,21.53
2023-07-18T18:52:12.507Z,21.50
2023-07-18T18:54:38.935Z,21.80
2023-07-18T18:57:05.622Z,21.83
2023-07-18T18:59:32.053Z,21.73
2023-07-18T19:01:58.456Z,21.64
2023-07-18T19:04:24.906Z,20.99
2023-07-18T19:06:51.306Z,20.94
2023-07-18T19:09:17.733Z,20.95
2023-07-18T19:11:44.152Z,20.90
2023-07-18T19:14:10.560Z,20.32
2023-07-18T19:16:40.025Z,20.07
2023-07-18T19:19:06.866Z,19.89
2023-07-18T19:21:33.263Z,20.25
2023-07-18T19:23:59.760Z,20.01
2023-07-18T19:26:26.159Z,19.59
2023-07-18T19:28:52.600Z,19.30
2023-07-18T19:31:19.225Z,18.93
2023-07-18T19:33:45.815Z,19.15
2023-07-18T19:36:12.221Z,18.70
2023-07-18T19:38:40.465Z,18.93
2023-07-18T19:41:07.033Z,19.21
2023-07-18T19:43:33.413Z,18.96
2023-07-18T19:45:59.899Z,19.04
2023-07-18T19:48:26.335Z,18.74
2023-07-18T19:50:52.842Z,18.60
2023-07-18T19:53:19.267Z,18.65
2023-07-18T19:55:45.784Z,18.44
2023-07-18T19:58:12.234Z,18.49
2023-07-18T20:00:38.601Z,18.30
2023-07-18T20:03:05.041Z,18.10
2023-07-18T20:05:31.454Z,18.17
2023-07-18T20:07:57.872Z,18.24
2023-07-18T20:10:24.260Z,18.22
2023-07-18T20:12:50.721Z,18.10
2023-07-18T20:15:17.131Z,18.02
2023-07-18T20:17:44.630Z,17.94
2023-07-18T20:20:11.279Z,17.86
2023-07-18T20:22:38.049Z,17.75
2023-07-18T20:25:04.869Z,17.82
2023-07-18T20:27:31.240Z,17.64
2023-07-18T20:29:57.621Z,17.49
2023-07-18T20:32:24.232Z,17.42
2023-07-18T20:34:50.623Z,17.45
2023-07-18T20:37:16.992Z,17.36
2023-07-18T20:39:43.385Z,17.29
2023-07-18T20:42:09.790Z,17.14
2023-07-18T20:44:36.192Z,17.06
2023-07-18T20:47:02.767Z,17.18
2023-07-18T20:49:29.230Z,17.11
2023-07-18T20:51:55.618Z,17.14
2023-07-18T20:54:22.051Z,17.08
2023-07-18T20:56:48.417Z,16.89
2023-07-18T20:59:14.825Z,16.90
2023-07-18T21:01:41.246Z,16.98
2023-07-18T21:04:07.704Z,16.99
2023-07-18T21:06:34.140Z,16.91
2023-07-18T21:09:00.580Z,16.80
2023-07-18T21:11:27.007Z,16.65
2023-07-18T21:13:54.475Z,16.53
2023-07-18T21:16:20.892Z,15.99
2023-07-18T21:18:47.328Z,15.78
2023-07-18T21:21:13.752Z,15.89
2023-07-18T21:23:40.184Z,16.11
2023-07-18T21:26:06.702Z,16.30
2023-07-18T21:28:33.087Z,16.25
2023-07-18T21:30:59.526Z,15.80
2023-07-18T21:33:26.015Z,15.71
2023-07-18T21:35:52.418Z,15.68
2023-07-18T21:38:19.362Z,15.82
2023-07-18T21:40:45.727Z,15.92
2023-07-18T21:43:12.119Z,15.95
2023-07-18T21:45:38.612Z,15.84
2023-07-18T21:48:05.297Z,15.72
2023-07-18T21:50:31.734Z,15.78
2023-07-18T21:52:58.202Z,15.78
2023-07-18T21:55:24.634Z,15.68
2023-07-18T21:57:51.029Z,15.69
2023-07-18T22:00:17.432Z,15.67
2023-07-18T22:02:43.917Z,15.57
2023-07-18T22:05:10.400Z,15.56
2023-07-18T22:07:36.869Z,15.60
2023-07-18T22:10:04.125Z,15.55
2023-07-18T22:12:30.649Z,15.46
2023-07-18T22:14:57.397Z,15.53
2023-07-18T22:17:23.920Z,15.32
2023-07-18T22:19:50.343Z,15.31
2023-07-18T22:22:16.738Z,15.25
2023-07-18T22:24:43.119Z,15.24
2023-07-18T22:27:09.608Z,15.23
2023-07-18T22:29:36.041Z,15.23
2023-07-18T22:32:02.458Z,15.28
2023-07-18T22:34:28.839Z,15.29
2023-07-18T22:36:55.278Z,15.24
2023-07-18T22:39:34.708Z,15.16
2023-07-18T22:42:19.178Z,15.32
2023-07-18T22:44:46.428Z,15.50
2023-07-18T22:47:13.436Z,15.34
2023-07-18T22:49:40.370Z,15.46
2023-07-18T22:52:11.551Z,15.42
2023-07-18T22:54:37.948Z,15.22
2023-07-18T22:57:04.717Z,15.00
2023-07-18T22:59:31.255Z,14.65
2023-07-18T23:01:57.742Z,14.88
2023-07-18T23:04:24.246Z,14.78
2023-07-18T23:06:50.610Z,14.85
2023-07-18T23:09:16.991Z,14.68
2023-07-18T23:11:43.360Z,14.38
2023-07-18T23:14:09.780Z,14.09
2023-07-18T23:16:36.219Z,14.11
2023-07-18T23:19:03.703Z,14.12
2023-07-18T23:21:30.208Z,14.14
2023-07-18T23:23:56.612Z,14.06
2023-07-18T23:26:23.144Z,14.02
2023-07-18T23:28:49.585Z,13.96
2023-07-18T23:31:17.107Z,13.84
2023-07-18T23:33:44.654Z,13.71
2023-07-18T23:36:11.088Z,13.28
2023-07-18T23:38:37.467Z,13.12
2023-07-18T23:41:03.869Z,13.36
2023-07-18T23:43:30.275Z,13.52
2023-07-18T23:45:56.975Z,13.01
2023-07-18T23:48:26.262Z,12.82
2023-07-18T23:50:52.795Z,12.92
2023-07-18T23:53:19.215Z,12.89
2023-07-18T23:55:45.917Z,13.00
2023-07-18T23:58:12.644Z,13.01
